sensor_id;sensor_type;location;lat;lon;timestamp;temperature;humidity
26081;DHT22;13991;51.174;4.438;2022-10-22T00:00:10;16.40;99.90
26081;DHT22;13991;51.174;4.438;2022-10-22T00:02:36;16.30;99.90
26081;DHT22;13991;51.174;4.438;2022-10-22T00:05:02;16.40;99.90
26081;DHT22;13991;51.174;4.438;2022-10-22T00:07:28;16.40;99.90
26081;DHT22;13991;51.174;4.438;2022-10-22T00:09:53;16.40;99.90
26081;DHT22;13991;51.174;4.438;2022-10-22T00:12:19;16.30;99.90
26081;DHT22;13991;51.174;4.438;2022-10-22T00:14:45;16.40;99.90
26081;DHT22;13991;51.174;4.438;2022-10-22T00:17:11;16.40;99.90
26081;DHT22;13991;51.174;4.438;2022-10-22T00:19:37;16.40;99.90
26081;DHT22;13991;51.174;4.438;2022-10-22T00:22:03;16.40;99.90
26081;DHT22;13991;51.174;4.438;2022-10-22T00:24:32;16.40;99.90
26081;DHT22;13991;51.174;4.438;2022-10-22T00:26:58;16.30;99.90
26081;DHT22;13991;51.174;4.438;2022-10-22T00:29:24;16.30;99.90
26081;DHT22;13991;51.174;4.438;2022-10-22T00:31:49;16.40;99.90
26081;DHT22;13991;51.174;4.438;2022-10-22T00:34:17;16.40;99.90
26081;DHT22;13991;51.174;4.438;2022-10-22T00:36:44;16.40;99.90
26081;DHT22;13991;51.174;4.438;2022-10-22T00:39:10;16.40;99.90
26081;DHT22;13991;51.174;4.438;2022-10-22T00:41:37;16.40;99.90
26081;DHT22;13991;51.174;4.438;2022-10-22T00:44:04;16.40;99.90
26081;DHT22;13991;51.174;4.438;2022-10-22T00:46:30;16.40;99.90
26081;DHT22;13991;51.174;4.438;2022-10-22T00:48:59;16.50;99.90
26081;DHT22;13991;51.174;4.438;2022-10-22T00:51:29;16.50;99.90
26081;DHT22;13991;51.174;4.438;2022-10-22T00:54:00;16.50;99.90
26081;DHT22;13991;51.174;4.438;2022-10-22T00:56:27;16.50;99.90
26081;DHT22;13991;51.174;4.438;2022-10-22T00:58:55;16.50;99.90
26081;DHT22;13991;51.174;4.438;2022-10-22T01:01:25;16.50;99.90
26081;DHT22;13991;51.174;4.438;2022-10-22T01:03:52;16.60;99.90
26081;DHT22;13991;51.174;4.438;2022-10-22T01:06:27;16.50;99.90
26081;DHT22;13991;51.174;4.438;2022-10-22T01:11:44;16.50;99.90
26081;DHT22;13991;51.174;4.438;2022-10-22T01:17:17;16.40;99.90
26081;DHT22;13991;51.174;4.438;2022-10-22T01:23:17;16.30;99.90
26081;DHT22;13991;51.174;4.438;2022-10-22T01:31:42;16.40;99.90
26081;DHT22;13991;51.174;4.438;2022-10-22T01:34:11;16.30;99.90
26081;DHT22;13991;51.174;4.438;2022-10-22T01:36:39;16.30;99.90
26081;DHT22;13991;51.174;4.438;2022-10-22T01:39:06;16.30;99.90
26081;DHT22;13991;51.174;4.438;2022-10-22T01:41:33;16.30;99.90
26081;DHT22;13991;51.174;4.438;2022-10-22T01:43:59;16.30;99.90
26081;DHT22;13991;51.174;4.438;2022-10-22T01:46:26;16.40;99.90
26081;DHT22;13991;51.174;4.438;2022-10-22T01:49:16;16.30;99.90
26081;DHT22;13991;51.174;4.438;2022-10-22T01:52:06;16.40;99.90
26081;DHT22;13991;51.174;4.438;2022-10-22T01:57:18;16.20;99.90
26081;DHT22;13991;51.174;4.438;2022-10-22T02:05:43;16.30;99.90
26081;DHT22;13991;51.174;4.438;2022-10-22T02:08:19;16.20;99.90
26081;DHT22;13991;51.174;4.438;2022-10-22T02:10:47;16.20;99.90
26081;DHT22;13991;51.174;4.438;2022-10-22T02:13:22;16.10;99.90
26081;DHT22;13991;51.174;4.438;2022-10-22T02:15:50;16.20;99.90
26081;DHT22;13991;51.174;4.438;2022-10-22T02:18:19;16.10;99.90
26081;DHT22;13991;51.174;4.438;2022-10-22T02:20:46;16.20;99.90
26081;DHT22;13991;51.174;4.438;2022-10-22T02:23:13;16.20;99.90
26081;DHT22;13991;51.174;4.438;2022-10-22T02:25:41;16.20;99.90
26081;DHT22;13991;51.174;4.438;2022-10-22T02:30:38;16.20;99.90
26081;DHT22;13991;51.174;4.438;2022-10-22T02:33:10;16.20;99.90
26081;DHT22;13991;51.174;4.438;2022-10-22T02:35:39;16.20;99.90
26081;DHT22;13991;51.174;4.438;2022-10-22T02:38:06;16.20;99.90
26081;DHT22;13991;51.174;4.438;2022-10-22T02:40:32;16.20;99.90
26081;DHT22;13991;51.174;4.438;2022-10-22T02:42:58;16.20;99.90
26081;DHT22;13991;51.174;4.438;2022-10-22T02:45:24;16.10;99.90
26081;DHT22;13991;51.174;4.438;2022-10-22T02:47:50;16.20;99.90
26081;DHT22;13991;51.174;4.438;2022-10-22T02:50:16;16.20;99.90
26081;DHT22;13991;51.174;4.438;2022-10-22T02:52:41;16.20;99.90
26081;DHT22;13991;51.174;4.438;2022-10-22T02:55:07;16.20;99.90
26081;DHT22;13991;51.174;4.438;2022-10-22T02:57:33;16.20;99.90
26081;DHT22;13991;51.174;4.438;2022-10-22T02:59:59;16.20;99.90
26081;DHT22;13991;51.174;4.438;2022-10-22T03:02:24;16.10;99.90
26081;DHT22;13991;51.174;4.438;2022-10-22T03:04:50;16.10;99.90
26081;DHT22;13991;51.174;4.438;2022-10-22T03:07:16;16.00;99.90
26081;DHT22;13991;51.174;4.438;2022-10-22T03:09:41;16.10;99.90
26081;DHT22;13991;51.174;4.438;2022-10-22T03:12:07;16.00;99.90
26081;DHT22;13991;51.174;4.438;2022-10-22T03:14:33;16.00;99.90
26081;DHT22;13991;51.174;4.438;2022-10-22T03:16:59;16.10;99.90
26081;DHT22;13991;51.174;4.438;2022-10-22T03:19:25;16.00;99.90
26081;DHT22;13991;51.174;4.438;2022-10-22T03:21:57;16.00;99.90
26081;DHT22;13991;51.174;4.438;2022-10-22T03:24:30;16.10;99.90
26081;DHT22;13991;51.174;4.438;2022-10-22T03:26:58;16.10;99.90
26081;DHT22;13991;51.174;4.438;2022-10-22T03:29:26;16.10;99.90
26081;DHT22;13991;51.174;4.438;2022-10-22T03:31:52;16.10;99.90
26081;DHT22;13991;51.174;4.438;2022-10-22T03:34:18;16.10;99.90
26081;DHT22;13991;51.174;4.438;2022-10-22T03:36:44;16.20;99.90
26081;DHT22;13991;51.174;4.438;2022-10-22T03:39:12;16.10;99.90
26081;DHT22;13991;51.174;4.438;2022-10-22T03:41:39;16.10;99.90
26081;DHT22;13991;51.174;4.438;2022-10-22T03:44:05;16.20;99.90
26081;DHT22;13991;51.174;4.438;2022-10-22T03:46:31;16.20;99.90
26081;DHT22;13991;51.174;4.438;2022-10-22T03:48:56;16.10;99.90
26081;DHT22;13991;51.174;4.438;2022-10-22T03:51:24;16.20;99.90
26081;DHT22;13991;51.174;4.438;2022-10-22T03:53:50;16.20;99.90
26081;DHT22;13991;51.174;4.438;2022-10-22T03:56:16;16.30;99.90
26081;DHT22;13991;51.174;4.438;2022-10-22T03:58:41;16.20;99.90
26081;DHT22;13991;51.174;4.438;2022-10-22T04:01:12;16.20;99.90
26081;DHT22;13991;51.174;4.438;2022-10-22T04:03:38;16.20;99.90
26081;DHT22;13991;51.174;4.438;2022-10-22T04:06:07;16.20;99.90
26081;DHT22;13991;51.174;4.438;2022-10-22T04:08:33;16.30;99.90
26081;DHT22;13991;51.174;4.438;2022-10-22T04:10:59;16.20;99.90
26081;DHT22;13991;51.174;4.438;2022-10-22T04:13:25;16.20;99.90
26081;DHT22;13991;51.174;4.438;2022-10-22T04:15:51;16.20;99.90
26081;DHT22;13991;51.174;4.438;2022-10-22T04:18:18;16.20;99.90
26081;DHT22;13991;51.174;4.438;2022-10-22T04:20:44;16.20;99.90
26081;DHT22;13991;51.174;4.438;2022-10-22T04:23:10;16.20;99.90
26081;DHT22;13991;51.174;4.438;2022-10-22T04:25:36;16.20;99.90
26081;DHT22;13991;51.174;4.438;2022-10-22T04:28:04;16.20;99.90
26081;DHT22;13991;51.174;4.438;2022-10-22T04:30:30;16.20;99.90
26081;DHT22;13991;51.174;4.438;2022-10-22T04:32:55;16.20;99.90
26081;DHT22;13991;51.174;4.438;2022-10-22T04:35:21;16.20;99.90
26081;DHT22;13991;51.174;4.438;2022-10-22T04:37:47;16.20;99.90
26081;DHT22;13991;51.174;4.438;2022-10-22T04:40:12;16.30;99.90
26081;DHT22;13991;51.174;4.438;2022-10-22T04:42:38;16.20;99.90
26081;DHT22;13991;51.174;4.438;2022-10-22T04:45:04;16.30;99.90
26081;DHT22;13991;51.174;4.438;2022-10-22T04:47:30;16.20;99.90
26081;DHT22;13991;51.174;4.438;2022-10-22T04:49:55;16.20;99.90
26081;DHT22;13991;51.174;4.438;2022-10-22T04:52:21;16.10;99.90
26081;DHT22;13991;51.174;4.438;2022-10-22T04:54:46;16.20;99.90
26081;DHT22;13991;51.174;4.438;2022-10-22T04:57:12;16.20;99.90
26081;DHT22;13991;51.174;4.438;2022-10-22T04:59:39;16.20;99.90
26081;DHT22;13991;51.174;4.438;2022-10-22T05:02:06;16.20;99.90
26081;DHT22;13991;51.174;4.438;2022-10-22T05:04:33;16.20;99.90
26081;DHT22;13991;51.174;4.438;2022-10-22T05:07:01;16.20;99.90
26081;DHT22;13991;51.174;4.438;2022-10-22T05:09:26;16.20;99.90
26081;DHT22;13991;51.174;4.438;2022-10-22T05:11:52;16.10;99.90
26081;DHT22;13991;51.174;4.438;2022-10-22T05:14:23;16.10;99.90
26081;DHT22;13991;51.174;4.438;2022-10-22T05:16:51;16.10;99.90
26081;DHT22;13991;51.174;4.438;2022-10-22T05:19:21;16.10;99.90
26081;DHT22;13991;51.174;4.438;2022-10-22T05:21:49;16.10;99.90
26081;DHT22;13991;51.174;4.438;2022-10-22T05:24:14;16.00;99.90
26081;DHT22;13991;51.174;4.438;2022-10-22T05:26:40;15.90;99.90
26081;DHT22;13991;51.174;4.438;2022-10-22T05:29:14;15.80;99.90
26081;DHT22;13991;51.174;4.438;2022-10-22T05:31:39;16.00;99.90
26081;DHT22;13991;51.174;4.438;2022-10-22T05:34:05;15.90;99.90
26081;DHT22;13991;51.174;4.438;2022-10-22T05:36:32;15.90;99.90
26081;DHT22;13991;51.174;4.438;2022-10-22T05:38:58;16.00;99.90
26081;DHT22;13991;51.174;4.438;2022-10-22T05:41:29;15.90;99.90
26081;DHT22;13991;51.174;4.438;2022-10-22T05:43:57;16.00;99.90
26081;DHT22;13991;51.174;4.438;2022-10-22T05:46:27;16.00;99.90
26081;DHT22;13991;51.174;4.438;2022-10-22T05:48:55;15.90;99.90
26081;DHT22;13991;51.174;4.438;2022-10-22T05:51:29;15.90;99.90
26081;DHT22;13991;51.174;4.438;2022-10-22T05:54:10;15.90;99.90
26081;DHT22;13991;51.174;4.438;2022-10-22T05:56:46;15.90;99.90
26081;DHT22;13991;51.174;4.438;2022-10-22T05:59:15;15.90;99.90
26081;DHT22;13991;51.174;4.438;2022-10-22T06:04:38;15.90;99.90
26081;DHT22;13991;51.174;4.438;2022-10-22T06:07:13;15.90;99.90
26081;DHT22;13991;51.174;4.438;2022-10-22T06:09:52;16.00;99.90
26081;DHT22;13991;51.174;4.438;2022-10-22T06:15:39;15.90;99.90
26081;DHT22;13991;51.174;4.438;2022-10-22T06:18:08;15.80;99.90
26081;DHT22;13991;51.174;4.438;2022-10-22T06:20:36;15.80;99.90
26081;DHT22;13991;51.174;4.438;2022-10-22T06:23:03;15.70;99.90
26081;DHT22;13991;51.174;4.438;2022-10-22T06:25:31;15.80;99.90
26081;DHT22;13991;51.174;4.438;2022-10-22T06:27:57;15.80;99.90
26081;DHT22;13991;51.174;4.438;2022-10-22T06:30:24;15.70;99.90
26081;DHT22;13991;51.174;4.438;2022-10-22T06:32:49;15.80;99.90
26081;DHT22;13991;51.174;4.438;2022-10-22T06:35:15;15.80;99.90
26081;DHT22;13991;51.174;4.438;2022-10-22T06:37:41;15.80;99.90
26081;DHT22;13991;51.174;4.438;2022-10-22T06:40:07;15.90;99.90
26081;DHT22;13991;51.174;4.438;2022-10-22T06:42:32;16.00;99.90
26081;DHT22;13991;51.174;4.438;2022-10-22T06:44:58;16.00;99.90
26081;DHT22;13991;51.174;4.438;2022-10-22T06:47:24;16.00;99.90
26081;DHT22;13991;51.174;4.438;2022-10-22T06:49:49;16.10;99.90
26081;DHT22;13991;51.174;4.438;2022-10-22T06:52:15;16.10;99.90
26081;DHT22;13991;51.174;4.438;2022-10-22T06:54:41;16.20;99.90
26081;DHT22;13991;51.174;4.438;2022-10-22T06:57:07;16.30;99.90
26081;DHT22;13991;51.174;4.438;2022-10-22T06:59:32;16.30;99.90
26081;DHT22;13991;51.174;4.438;2022-10-22T07:01:58;16.30;99.90
26081;DHT22;13991;51.174;4.438;2022-10-22T07:04:23;16.40;99.90
26081;DHT22;13991;51.174;4.438;2022-10-22T07:06:49;16.40;99.90
26081;DHT22;13991;51.174;4.438;2022-10-22T07:09:15;16.40;99.90
26081;DHT22;13991;51.174;4.438;2022-10-22T07:11:43;16.40;99.90
26081;DHT22;13991;51.174;4.438;2022-10-22T07:14:08;16.50;99.90
26081;DHT22;13991;51.174;4.438;2022-10-22T07:16:34;16.50;99.90
26081;DHT22;13991;51.174;4.438;2022-10-22T07:19:01;16.50;99.90
26081;DHT22;13991;51.174;4.438;2022-10-22T07:21:28;16.50;99.90
26081;DHT22;13991;51.174;4.438;2022-10-22T07:23:54;16.50;99.90
26081;DHT22;13991;51.174;4.438;2022-10-22T07:26:20;16.50;99.90
26081;DHT22;13991;51.174;4.438;2022-10-22T07:28:46;16.50;99.90
26081;DHT22;13991;51.174;4.438;2022-10-22T07:31:13;16.60;99.90
26081;DHT22;13991;51.174;4.438;2022-10-22T07:33:39;16.60;99.90
26081;DHT22;13991;51.174;4.438;2022-10-22T07:36:08;16.70;99.90
26081;DHT22;13991;51.174;4.438;2022-10-22T07:38:35;16.70;99.90
26081;DHT22;13991;51.174;4.438;2022-10-22T07:41:01;16.80;99.90
26081;DHT22;13991;51.174;4.438;2022-10-22T07:43:27;16.80;99.90
26081;DHT22;13991;51.174;4.438;2022-10-22T07:45:53;16.80;99.90
26081;DHT22;13991;51.174;4.438;2022-10-22T07:48:20;16.80;99.90
26081;DHT22;13991;51.174;4.438;2022-10-22T07:50:49;16.90;99.90
26081;DHT22;13991;51.174;4.438;2022-10-22T07:53:15;17.00;99.90
26081;DHT22;13991;51.174;4.438;2022-10-22T07:55:40;17.00;99.90
26081;DHT22;13991;51.174;4.438;2022-10-22T07:58:06;17.00;99.90
26081;DHT22;13991;51.174;4.438;2022-10-22T08:00:32;17.00;99.90
26081;DHT22;13991;51.174;4.438;2022-10-22T08:02:58;17.00;99.90
26081;DHT22;13991;51.174;4.438;2022-10-22T08:05:24;17.20;99.90
26081;DHT22;13991;51.174;4.438;2022-10-22T08:07:50;17.00;99.90
26081;DHT22;13991;51.174;4.438;2022-10-22T08:10:16;17.10;99.90
26081;DHT22;13991;51.174;4.438;2022-10-22T08:12:42;17.10;99.90
26081;DHT22;13991;51.174;4.438;2022-10-22T08:15:08;17.10;99.90
26081;DHT22;13991;51.174;4.438;2022-10-22T08:17:34;17.10;99.90
26081;DHT22;13991;51.174;4.438;2022-10-22T08:20:00;17.30;99.90
26081;DHT22;13991;51.174;4.438;2022-10-22T08:22:26;17.40;99.90
26081;DHT22;13991;51.174;4.438;2022-10-22T08:24:52;17.60;99.90
26081;DHT22;13991;51.174;4.438;2022-10-22T08:27:18;17.80;99.90
26081;DHT22;13991;51.174;4.438;2022-10-22T08:29:43;17.90;99.90
26081;DHT22;13991;51.174;4.438;2022-10-22T08:32:09;17.90;99.90
26081;DHT22;13991;51.174;4.438;2022-10-22T08:34:35;18.00;99.90
26081;DHT22;13991;51.174;4.438;2022-10-22T08:37:00;17.90;99.90
26081;DHT22;13991;51.174;4.438;2022-10-22T08:39:26;17.90;99.90
26081;DHT22;13991;51.174;4.438;2022-10-22T08:42:28;18.00;99.90
26081;DHT22;13991;51.174;4.438;2022-10-22T08:50:47;18.00;99.90
26081;DHT22;13991;51.174;4.438;2022-10-22T08:53:21;17.90;99.90
26081;DHT22;13991;51.174;4.438;2022-10-22T08:55:48;17.80;99.90
26081;DHT22;13991;51.174;4.438;2022-10-22T08:58:39;17.90;99.90
26081;DHT22;13991;51.174;4.438;2022-10-22T09:01:19;18.20;99.90
26081;DHT22;13991;51.174;4.438;2022-10-22T09:04:06;18.20;99.90
26081;DHT22;13991;51.174;4.438;2022-10-22T09:06:36;18.20;99.90
26081;DHT22;13991;51.174;4.438;2022-10-22T09:09:11;18.20;99.90
26081;DHT22;13991;51.174;4.438;2022-10-22T09:11:43;18.40;99.90
26081;DHT22;13991;51.174;4.438;2022-10-22T09:23:04;18.40;99.90
26081;DHT22;13991;51.174;4.438;2022-10-22T09:25:37;18.30;99.90
26081;DHT22;13991;51.174;4.438;2022-10-22T09:28:07;18.30;99.90
26081;DHT22;13991;51.174;4.438;2022-10-22T09:30:36;18.40;99.90
26081;DHT22;13991;51.174;4.438;2022-10-22T09:38:15;18.70;99.90
26081;DHT22;13991;51.174;4.438;2022-10-22T09:40:51;18.80;99.90
26081;DHT22;13991;51.174;4.438;2022-10-22T09:43:18;19.00;99.90
26081;DHT22;13991;51.174;4.438;2022-10-22T09:45:45;19.00;99.90
26081;DHT22;13991;51.174;4.438;2022-10-22T09:50:46;19.30;99.90
26081;DHT22;13991;51.174;4.438;2022-10-22T09:53:22;19.30;99.90
26081;DHT22;13991;51.174;4.438;2022-10-22T09:55:53;19.50;99.90
26081;DHT22;13991;51.174;4.438;2022-10-22T09:58:19;19.50;99.90
26081;DHT22;13991;51.174;4.438;2022-10-22T10:00:53;19.40;99.90
26081;DHT22;13991;51.174;4.438;2022-10-22T10:03:25;19.50;99.90
26081;DHT22;13991;51.174;4.438;2022-10-22T10:05:53;19.60;99.90
26081;DHT22;13991;51.174;4.438;2022-10-22T10:08:20;19.70;99.90
26081;DHT22;13991;51.174;4.438;2022-10-22T10:17:04;19.80;99.90
26081;DHT22;13991;51.174;4.438;2022-10-22T10:23:01;19.90;99.90
26081;DHT22;13991;51.174;4.438;2022-10-22T10:25:57;19.90;99.90
26081;DHT22;13991;51.174;4.438;2022-10-22T10:29:03;20.20;99.90
26081;DHT22;13991;51.174;4.438;2022-10-22T10:31:48;20.10;99.90
26081;DHT22;13991;51.174;4.438;2022-10-22T10:37:01;19.80;99.90
26081;DHT22;13991;51.174;4.438;2022-10-22T10:42:48;19.90;99.90
26081;DHT22;13991;51.174;4.438;2022-10-22T10:48:05;20.00;99.90
26081;DHT22;13991;51.174;4.438;2022-10-22T10:50:44;20.10;99.90
26081;DHT22;13991;51.174;4.438;2022-10-22T10:53:35;20.30;99.90
26081;DHT22;13991;51.174;4.438;2022-10-22T10:56:27;20.60;99.90
26081;DHT22;13991;51.174;4.438;2022-10-22T10:59:17;20.60;99.90
26081;DHT22;13991;51.174;4.438;2022-10-22T11:04:43;20.60;99.90
26081;DHT22;13991;51.174;4.438;2022-10-22T11:07:17;20.60;99.90
26081;DHT22;13991;51.174;4.438;2022-10-22T11:09:52;20.40;99.90
26081;DHT22;13991;51.174;4.438;2022-10-22T11:12:48;20.50;99.90
26081;DHT22;13991;51.174;4.438;2022-10-22T11:17:46;20.50;99.90
26081;DHT22;13991;51.174;4.438;2022-10-22T11:23:21;20.50;99.90
26081;DHT22;13991;51.174;4.438;2022-10-22T11:25:49;20.40;99.90
26081;DHT22;13991;51.174;4.438;2022-10-22T11:28:28;20.30;99.90
26081;DHT22;13991;51.174;4.438;2022-10-22T11:31:08;20.10;99.90
26081;DHT22;13991;51.174;4.438;2022-10-22T11:36:09;20.20;99.90
26081;DHT22;13991;51.174;4.438;2022-10-22T11:38:36;20.20;99.90
26081;DHT22;13991;51.174;4.438;2022-10-22T11:41:15;20.30;99.90
26081;DHT22;13991;51.174;4.438;2022-10-22T11:51:31;20.40;99.90
26081;DHT22;13991;51.174;4.438;2022-10-22T11:54:01;20.40;99.90
26081;DHT22;13991;51.174;4.438;2022-10-22T11:56:36;20.30;99.90
26081;DHT22;13991;51.174;4.438;2022-10-22T11:59:02;20.20;99.90
26081;DHT22;13991;51.174;4.438;2022-10-22T12:01:38;20.20;99.90
26081;DHT22;13991;51.174;4.438;2022-10-22T12:04:15;20.20;99.90
26081;DHT22;13991;51.174;4.438;2022-10-22T12:06:59;20.10;99.90
26081;DHT22;13991;51.174;4.438;2022-10-22T12:09:26;20.20;99.90
26081;DHT22;13991;51.174;4.438;2022-10-22T12:12:03;20.00;99.90
26081;DHT22;13991;51.174;4.438;2022-10-22T12:14:33;20.00;99.90
26081;DHT22;13991;51.174;4.438;2022-10-22T12:17:15;20.20;99.90
26081;DHT22;13991;51.174;4.438;2022-10-22T12:19:46;20.20;99.90
26081;DHT22;13991;51.174;4.438;2022-10-22T12:22:33;20.10;99.90
26081;DHT22;13991;51.174;4.438;2022-10-22T12:25:11;20.20;99.90
26081;DHT22;13991;51.174;4.438;2022-10-22T12:27:40;20.40;99.90
26081;DHT22;13991;51.174;4.438;2022-10-22T12:30:23;20.60;99.90
26081;DHT22;13991;51.174;4.438;2022-10-22T12:32:55;20.70;99.90
26081;DHT22;13991;51.174;4.438;2022-10-22T12:35:24;20.60;99.90
26081;DHT22;13991;51.174;4.438;2022-10-22T12:37:51;20.70;99.90
26081;DHT22;13991;51.174;4.438;2022-10-22T12:40:24;20.90;99.90
26081;DHT22;13991;51.174;4.438;2022-10-22T12:42:55;20.90;99.90
26081;DHT22;13991;51.174;4.438;2022-10-22T12:45:22;21.00;99.90
26081;DHT22;13991;51.174;4.438;2022-10-22T12:47:54;21.20;99.90
26081;DHT22;13991;51.174;4.438;2022-10-22T12:50:25;21.40;99.90
26081;DHT22;13991;51.174;4.438;2022-10-22T12:52:54;21.40;99.90
26081;DHT22;13991;51.174;4.438;2022-10-22T12:55:22;21.50;99.90
26081;DHT22;13991;51.174;4.438;2022-10-22T12:57:51;21.50;99.90
26081;DHT22;13991;51.174;4.438;2022-10-22T13:00:32;21.50;99.90
26081;DHT22;13991;51.174;4.438;2022-10-22T13:03:01;21.60;99.90
26081;DHT22;13991;51.174;4.438;2022-10-22T13:05:32;21.40;99.90
26081;DHT22;13991;51.174;4.438;2022-10-22T13:08:11;21.30;99.90
26081;DHT22;13991;51.174;4.438;2022-10-22T13:10:47;21.40;99.90
26081;DHT22;13991;51.174;4.438;2022-10-22T13:13:40;21.60;99.90
26081;DHT22;13991;51.174;4.438;2022-10-22T13:16:24;21.70;99.90
26081;DHT22;13991;51.174;4.438;2022-10-22T13:18:52;21.60;99.90
26081;DHT22;13991;51.174;4.438;2022-10-22T13:21:31;21.60;99.90
26081;DHT22;13991;51.174;4.438;2022-10-22T13:24:21;21.50;99.90
26081;DHT22;13991;51.174;4.438;2022-10-22T13:26:49;21.60;99.90
26081;DHT22;13991;51.174;4.438;2022-10-22T13:29:18;21.70;99.90
26081;DHT22;13991;51.174;4.438;2022-10-22T13:31:47;21.70;99.90
26081;DHT22;13991;51.174;4.438;2022-10-22T13:34:16;21.80;99.90
26081;DHT22;13991;51.174;4.438;2022-10-22T13:36:43;21.80;99.90
26081;DHT22;13991;51.174;4.438;2022-10-22T13:39:19;21.80;99.90
26081;DHT22;13991;51.174;4.438;2022-10-22T13:41:46;21.80;99.90
26081;DHT22;13991;51.174;4.438;2022-10-22T13:44:15;21.80;99.90
26081;DHT22;13991;51.174;4.438;2022-10-22T13:46:41;22.00;99.90
26081;DHT22;13991;51.174;4.438;2022-10-22T13:49:19;22.20;99.90
26081;DHT22;13991;51.174;4.438;2022-10-22T13:51:48;22.10;99.90
26081;DHT22;13991;51.174;4.438;2022-10-22T13:54:18;22.30;99.90
26081;DHT22;13991;51.174;4.438;2022-10-22T13:56:45;22.10;99.90
26081;DHT22;13991;51.174;4.438;2022-10-22T13:59:11;22.20;99.90
26081;DHT22;13991;51.174;4.438;2022-10-22T14:01:38;22.10;99.90
26081;DHT22;13991;51.174;4.438;2022-10-22T14:04:05;22.10;99.90
26081;DHT22;13991;51.174;4.438;2022-10-22T14:06:32;21.90;99.90
26081;DHT22;13991;51.174;4.438;2022-10-22T14:09:10;21.80;99.90
26081;DHT22;13991;51.174;4.438;2022-10-22T14:11:38;21.80;99.90
26081;DHT22;13991;51.174;4.438;2022-10-22T14:14:04;21.50;99.90
26081;DHT22;13991;51.174;4.438;2022-10-22T14:16:33;21.40;99.90
26081;DHT22;13991;51.174;4.438;2022-10-22T14:19:00;21.10;99.90
26081;DHT22;13991;51.174;4.438;2022-10-22T14:21:32;21.00;99.90
26081;DHT22;13991;51.174;4.438;2022-10-22T14:23:58;20.90;99.90
26081;DHT22;13991;51.174;4.438;2022-10-22T14:26:26;20.80;99.90
26081;DHT22;13991;51.174;4.438;2022-10-22T14:28:55;20.90;99.90
26081;DHT22;13991;51.174;4.438;2022-10-22T14:31:20;20.90;99.90
26081;DHT22;13991;51.174;4.438;2022-10-22T14:33:46;20.80;99.90
26081;DHT22;13991;51.174;4.438;2022-10-22T14:36:15;20.80;99.90
26081;DHT22;13991;51.174;4.438;2022-10-22T14:38:42;20.80;99.90
26081;DHT22;13991;51.174;4.438;2022-10-22T14:43:40;20.80;99.90
26081;DHT22;13991;51.174;4.438;2022-10-22T14:46:06;20.80;99.90
26081;DHT22;13991;51.174;4.438;2022-10-22T14:48:31;20.80;99.90
26081;DHT22;13991;51.174;4.438;2022-10-22T14:50:57;20.80;99.90
26081;DHT22;13991;51.174;4.438;2022-10-22T14:53:23;20.70;99.90
26081;DHT22;13991;51.174;4.438;2022-10-22T14:55:48;20.70;99.90
26081;DHT22;13991;51.174;4.438;2022-10-22T14:58:15;20.60;99.90
26081;DHT22;13991;51.174;4.438;2022-10-22T15:00:42;20.50;99.90
26081;DHT22;13991;51.174;4.438;2022-10-22T15:03:08;20.60;99.90
26081;DHT22;13991;51.174;4.438;2022-10-22T15:05:34;20.50;99.90
26081;DHT22;13991;51.174;4.438;2022-10-22T15:08:00;20.60;99.90
26081;DHT22;13991;51.174;4.438;2022-10-22T15:10:26;20.50;99.90
26081;DHT22;13991;51.174;4.438;2022-10-22T15:12:52;20.50;99.90
26081;DHT22;13991;51.174;4.438;2022-10-22T15:15:17;20.50;99.90
26081;DHT22;13991;51.174;4.438;2022-10-22T15:17:43;20.50;99.90
26081;DHT22;13991;51.174;4.438;2022-10-22T15:20:09;20.60;99.90
26081;DHT22;13991;51.174;4.438;2022-10-22T15:22:34;20.50;99.90
26081;DHT22;13991;51.174;4.438;2022-10-22T15:25:06;20.50;99.90
26081;DHT22;13991;51.174;4.438;2022-10-22T15:27:32;20.50;99.90
26081;DHT22;13991;51.174;4.438;2022-10-22T15:29:58;20.50;99.90
26081;DHT22;13991;51.174;4.438;2022-10-22T15:32:26;20.40;99.90
26081;DHT22;13991;51.174;4.438;2022-10-22T16:42:24;19.00;99.90
26081;DHT22;13991;51.174;4.438;2022-10-22T16:44:50;19.00;99.90
26081;DHT22;13991;51.174;4.438;2022-10-22T16:47:16;18.90;99.90
26081;DHT22;13991;51.174;4.438;2022-10-22T16:49:42;19.20;99.90
26081;DHT22;13991;51.174;4.438;2022-10-22T16:52:08;19.00;99.90
26081;DHT22;13991;51.174;4.438;2022-10-22T16:54:33;18.90;99.90
26081;DHT22;13991;51.174;4.438;2022-10-22T16:56:59;18.80;99.90
26081;DHT22;13991;51.174;4.438;2022-10-22T16:59:24;18.80;99.90
26081;DHT22;13991;51.174;4.438;2022-10-22T17:01:50;18.70;99.90
26081;DHT22;13991;51.174;4.438;2022-10-22T17:04:17;18.70;99.90
26081;DHT22;13991;51.174;4.438;2022-10-22T17:06:43;18.50;99.90
26081;DHT22;13991;51.174;4.438;2022-10-22T17:09:09;18.50;99.90
26081;DHT22;13991;51.174;4.438;2022-10-22T17:11:36;18.50;99.90
26081;DHT22;13991;51.174;4.438;2022-10-22T17:14:02;18.40;99.90
26081;DHT22;13991;51.174;4.438;2022-10-22T17:16:28;18.40;99.90
26081;DHT22;13991;51.174;4.438;2022-10-22T17:18:55;18.30;99.90
26081;DHT22;13991;51.174;4.438;2022-10-22T17:21:21;18.30;99.90
26081;DHT22;13991;51.174;4.438;2022-10-22T17:23:48;18.20;99.90
26081;DHT22;13991;51.174;4.438;2022-10-22T17:26:19;18.20;99.90
26081;DHT22;13991;51.174;4.438;2022-10-22T17:28:46;18.30;99.90
26081;DHT22;13991;51.174;4.438;2022-10-22T17:31:22;18.30;99.90
26081;DHT22;13991;51.174;4.438;2022-10-22T17:33:49;18.20;99.90
26081;DHT22;13991;51.174;4.438;2022-10-22T17:36:16;18.20;99.90
26081;DHT22;13991;51.174;4.438;2022-10-22T17:38:42;18.20;99.90
26081;DHT22;13991;51.174;4.438;2022-10-22T17:41:15;18.00;99.90
26081;DHT22;13991;51.174;4.438;2022-10-22T17:43:42;18.00;99.90
26081;DHT22;13991;51.174;4.438;2022-10-22T17:46:09;17.90;99.90
26081;DHT22;13991;51.174;4.438;2022-10-22T17:48:38;17.90;99.90
26081;DHT22;13991;51.174;4.438;2022-10-22T17:51:09;17.90;99.90
26081;DHT22;13991;51.174;4.438;2022-10-22T17:53:35;17.90;99.90
26081;DHT22;13991;51.174;4.438;2022-10-22T17:56:03;17.90;99.90
26081;DHT22;13991;51.174;4.438;2022-10-22T17:58:34;17.90;99.90
26081;DHT22;13991;51.174;4.438;2022-10-22T18:01:00;17.90;99.90
26081;DHT22;13991;51.174;4.438;2022-10-22T18:03:26;17.80;99.90
26081;DHT22;13991;51.174;4.438;2022-10-22T18:05:52;17.80;99.90
26081;DHT22;13991;51.174;4.438;2022-10-22T18:08:18;17.80;99.90
26081;DHT22;13991;51.174;4.438;2022-10-22T18:10:44;17.80;99.90
26081;DHT22;13991;51.174;4.438;2022-10-22T18:13:09;17.80;99.90
26081;DHT22;13991;51.174;4.438;2022-10-22T18:15:35;17.80;99.90
26081;DHT22;13991;51.174;4.438;2022-10-22T18:18:02;17.80;99.90
26081;DHT22;13991;51.174;4.438;2022-10-22T18:20:28;17.80;99.90
26081;DHT22;13991;51.174;4.438;2022-10-22T18:22:54;17.70;99.90